sensor_id;sensor_type;location;lat;lon;timestamp;P1;durP1;ratioP1;P2;durP2;ratioP2
20379;SDS011;10349;48.666;8.948;2023-04-09T00:01:54;13.27;;;9.17;;
20379;SDS011;10349;48.666;8.948;2023-04-09T00:04:20;15.43;;;10.50;;
20379;SDS011;10349;48.666;8.948;2023-04-09T00:06:47;13.83;;;10.40;;
20379;SDS011;10349;48.666;8.948;2023-04-09T00:09:13;15.70;;;11.67;;
20379;SDS011;10349;48.666;8.948;2023-04-09T00:11:39;15.67;;;11.20;;
20379;SDS011;10349;48.666;8.948;2023-04-09T00:14:05;15.53;;;9.83;;
20379;SDS011;10349;48.666;8.948;2023-04-09T00:16:30;16.87;;;11.10;;
20379;SDS011;10349;48.666;8.948;2023-04-09T00:18:56;12.00;;;9.77;;
20379;SDS011;10349;48.666;8.948;2023-04-09T00:21:22;13.10;;;8.53;;
20379;SDS011;10349;48.666;8.948;2023-04-09T00:23:49;20.70;;;11.50;;
20379;SDS011;10349;48.666;8.948;2023-04-09T00:26:15;13.40;;;9.57;;
20379;SDS011;10349;48.666;8.948;2023-04-09T00:28:41;16.93;;;11.10;;
20379;SDS011;10349;48.666;8.948;2023-04-09T00:31:06;11.00;;;9.50;;
20379;SDS011;10349;48.666;8.948;2023-04-09T00:33:32;11.07;;;9.37;;
20379;SDS011;10349;48.666;8.948;2023-04-09T00:35:58;13.97;;;9.80;;
20379;SDS011;10349;48.666;8.948;2023-04-09T00:38:23;11.90;;;9.77;;
20379;SDS011;10349;48.666;8.948;2023-04-09T00:40:49;13.80;;;10.90;;
20379;SDS011;10349;48.666;8.948;2023-04-09T00:43:16;12.70;;;10.50;;
20379;SDS011;10349;48.666;8.948;2023-04-09T00:45:42;15.83;;;9.67;;
20379;SDS011;10349;48.666;8.948;2023-04-09T00:48:09;11.37;;;9.70;;
20379;SDS011;10349;48.666;8.948;2023-04-09T00:50:35;11.33;;;9.57;;
20379;SDS011;10349;48.666;8.948;2023-04-09T00:53:01;12.50;;;9.57;;
20379;SDS011;10349;48.666;8.948;2023-04-09T00:55:27;15.83;;;10.53;;
20379;SDS011;10349;48.666;8.948;2023-04-09T00:57:54;19.67;;;9.10;;
20379;SDS011;10349;48.666;8.948;2023-04-09T01:00:19;16.00;;;9.60;;
20379;SDS011;10349;48.666;8.948;2023-04-09T01:02:45;16.30;;;11.20;;
20379;SDS011;10349;48.666;8.948;2023-04-09T01:05:12;15.23;;;10.77;;
20379;SDS011;10349;48.666;8.948;2023-04-09T01:13:27;12.60;;;9.47;;
20379;SDS011;10349;48.666;8.948;2023-04-09T01:16:02;12.80;;;8.70;;
20379;SDS011;10349;48.666;8.948;2023-04-09T01:18:44;15.27;;;10.00;;
20379;SDS011;10349;48.666;8.948;2023-04-09T01:21:18;13.77;;;11.00;;
20379;SDS011;10349;48.666;8.948;2023-04-09T01:24:35;14.00;;;10.63;;
20379;SDS011;10349;48.666;8.948;2023-04-09T01:27:01;13.53;;;10.07;;
20379;SDS011;10349;48.666;8.948;2023-04-09T01:29:48;12.33;;;9.73;;
20379;SDS011;10349;48.666;8.948;2023-04-09T01:32:17;13.70;;;10.23;;
20379;SDS011;10349;48.666;8.948;2023-04-09T01:34:45;14.00;;;9.10;;
20379;SDS011;10349;48.666;8.948;2023-04-09T01:37:12;15.00;;;11.00;;
20379;SDS011;10349;48.666;8.948;2023-04-09T01:39:40;15.70;;;10.33;;
20379;SDS011;10349;48.666;8.948;2023-04-09T01:42:06;13.80;;;10.63;;
20379;SDS011;10349;48.666;8.948;2023-04-09T01:44:35;17.27;;;10.23;;
20379;SDS011;10349;48.666;8.948;2023-04-09T01:47:04;11.97;;;10.53;;
20379;SDS011;10349;48.666;8.948;2023-04-09T01:49:31;15.30;;;10.53;;
20379;SDS011;10349;48.666;8.948;2023-04-09T01:51:57;13.90;;;10.27;;
20379;SDS011;10349;48.666;8.948;2023-04-09T01:54:23;10.80;;;8.87;;
20379;SDS011;10349;48.666;8.948;2023-04-09T01:56:49;11.57;;;8.43;;
20379;SDS011;10349;48.666;8.948;2023-04-09T01:59:15;12.80;;;9.00;;
20379;SDS011;10349;48.666;8.948;2023-04-09T02:01:45;14.73;;;10.83;;
20379;SDS011;10349;48.666;8.948;2023-04-09T02:04:26;20.93;;;10.20;;
20379;SDS011;10349;48.666;8.948;2023-04-09T02:09:30;11.50;;;9.67;;
20379;SDS011;10349;48.666;8.948;2023-04-09T02:11:58;15.73;;;9.97;;
20379;SDS011;10349;48.666;8.948;2023-04-09T02:14:28;14.73;;;9.83;;
20379;SDS011;10349;48.666;8.948;2023-04-09T02:16:56;16.13;;;10.27;;
20379;SDS011;10349;48.666;8.948;2023-04-09T02:19:22;14.23;;;9.90;;
20379;SDS011;10349;48.666;8.948;2023-04-09T02:21:48;14.17;;;10.43;;
20379;SDS011;10349;48.666;8.948;2023-04-09T02:24:14;15.77;;;10.87;;
20379;SDS011;10349;48.666;8.948;2023-04-09T02:26:39;13.00;;;9.00;;
20379;SDS011;10349;48.666;8.948;2023-04-09T02:29:05;15.27;;;10.10;;
20379;SDS011;10349;48.666;8.948;2023-04-09T02:31:31;9.77;;;8.00;;
20379;SDS011;10349;48.666;8.948;2023-04-09T02:33:56;9.10;;;8.03;;
20379;SDS011;10349;48.666;8.948;2023-04-09T02:36:22;14.40;;;10.40;;
20379;SDS011;10349;48.666;8.948;2023-04-09T02:38:48;14.07;;;9.17;;
20379;SDS011;10349;48.666;8.948;2023-04-09T02:41:14;11.27;;;9.33;;
20379;SDS011;10349;48.666;8.948;2023-04-09T02:43:39;15.93;;;9.97;;
20379;SDS011;10349;48.666;8.948;2023-04-09T02:46:05;12.03;;;8.90;;
20379;SDS011;10349;48.666;8.948;2023-04-09T02:48:32;13.50;;;10.13;;
20379;SDS011;10349;48.666;8.948;2023-04-09T02:50:58;15.67;;;10.37;;
20379;SDS011;10349;48.666;8.948;2023-04-09T02:53:23;13.43;;;9.43;;
20379;SDS011;10349;48.666;8.948;2023-04-09T02:55:49;16.37;;;12.10;;
20379;SDS011;10349;48.666;8.948;2023-04-09T02:58:15;17.40;;;10.70;;
20379;SDS011;10349;48.666;8.948;2023-04-09T03:00:41;15.30;;;10.90;;
20379;SDS011;10349;48.666;8.948;2023-04-09T03:03:06;15.90;;;11.00;;
20379;SDS011;10349;48.666;8.948;2023-04-09T03:05:32;13.77;;;10.53;;
20379;SDS011;10349;48.666;8.948;2023-04-09T03:07:58;15.23;;;9.60;;
20379;SDS011;10349;48.666;8.948;2023-04-09T03:10:23;19.60;;;11.27;;
20379;SDS011;10349;48.666;8.948;2023-04-09T03:12:49;13.50;;;10.13;;
20379;SDS011;10349;48.666;8.948;2023-04-09T03:15:15;12.87;;;8.87;;
20379;SDS011;10349;48.666;8.948;2023-04-09T03:17:40;13.47;;;9.67;;
20379;SDS011;10349;48.666;8.948;2023-04-09T03:20:06;14.30;;;9.63;;
20379;SDS011;10349;48.666;8.948;2023-04-09T03:22:37;14.30;;;9.67;;
20379;SDS011;10349;48.666;8.948;2023-04-09T03:25:11;14.47;;;9.87;;
20379;SDS011;10349;48.666;8.948;2023-04-09T03:27:37;11.83;;;9.87;;
20379;SDS011;10349;48.666;8.948;2023-04-09T03:30:03;13.50;;;9.13;;
20379;SDS011;10349;48.666;8.948;2023-04-09T03:32:38;15.97;;;10.47;;
20379;SDS011;10349;48.666;8.948;2023-04-09T03:35:04;12.70;;;9.83;;
20379;SDS011;10349;48.666;8.948;2023-04-09T03:37:31;14.43;;;9.43;;
20379;SDS011;10349;48.666;8.948;2023-04-09T03:39:57;12.90;;;8.87;;
20379;SDS011;10349;48.666;8.948;2023-04-09T03:42:26;14.00;;;9.23;;
20379;SDS011;10349;48.666;8.948;2023-04-09T03:44:53;14.87;;;11.27;;
20379;SDS011;10349;48.666;8.948;2023-04-09T03:47:37;16.73;;;9.40;;
20379;SDS011;10349;48.666;8.948;2023-04-09T03:50:03;13.00;;;9.80;;
20379;SDS011;10349;48.666;8.948;2023-04-09T03:52:41;11.73;;;8.37;;
20379;SDS011;10349;48.666;8.948;2023-04-09T03:55:08;12.73;;;9.07;;
20379;SDS011;10349;48.666;8.948;2023-04-09T03:57:34;12.40;;;9.90;;
20379;SDS011;10349;48.666;8.948;2023-04-09T04:00:00;14.33;;;9.70;;
20379;SDS011;10349;48.666;8.948;2023-04-09T04:02:35;12.60;;;9.17;;
20379;SDS011;10349;48.666;8.948;2023-04-09T04:05:05;16.10;;;10.57;;
20379;SDS011;10349;48.666;8.948;2023-04-09T04:07:37;14.87;;;10.03;;
20379;SDS011;10349;48.666;8.948;2023-04-09T04:10:11;17.30;;;10.57;;
20379;SDS011;10349;48.666;8.948;2023-04-09T04:12:41;13.60;;;10.50;;
20379;SDS011;10349;48.666;8.948;2023-04-09T04:15:11;13.00;;;10.13;;
20379;SDS011;10349;48.666;8.948;2023-04-09T04:17:43;11.77;;;8.53;;
20379;SDS011;10349;48.666;8.948;2023-04-09T04:20:17;15.37;;;10.50;;
20379;SDS011;10349;48.666;8.948;2023-04-09T04:22:57;15.63;;;10.53;;
20379;SDS011;10349;48.666;8.948;2023-04-09T04:25:24;17.37;;;11.13;;
20379;SDS011;10349;48.666;8.948;2023-04-09T04:27:50;14.23;;;9.90;;
20379;SDS011;10349;48.666;8.948;2023-04-09T04:30:22;17.50;;;11.70;;
20379;SDS011;10349;48.666;8.948;2023-04-09T04:32:57;12.10;;;9.27;;
20379;SDS011;10349;48.666;8.948;2023-04-09T04:35:24;14.40;;;9.80;;
20379;SDS011;10349;48.666;8.948;2023-04-09T04:37:53;12.93;;;8.90;;
20379;SDS011;10349;48.666;8.948;2023-04-09T04:40:20;15.03;;;9.63;;
20379;SDS011;10349;48.666;8.948;2023-04-09T04:42:52;13.90;;;9.43;;
20379;SDS011;10349;48.666;8.948;2023-04-09T04:45:18;14.17;;;9.83;;
20379;SDS011;10349;48.666;8.948;2023-04-09T04:47:50;9.60;;;8.50;;
20379;SDS011;10349;48.666;8.948;2023-04-09T04:50:17;12.43;;;9.13;;
20379;SDS011;10349;48.666;8.948;2023-04-09T04:53:09;13.50;;;10.13;;
20379;SDS011;10349;48.666;8.948;2023-04-09T04:55:42;12.00;;;8.53;;
20379;SDS011;10349;48.666;8.948;2023-04-09T04:58:12;15.23;;;10.23;;
20379;SDS011;10349;48.666;8.948;2023-04-09T05:00:47;13.00;;;8.90;;
20379;SDS011;10349;48.666;8.948;2023-04-09T05:03:13;11.83;;;9.47;;
20379;SDS011;10349;48.666;8.948;2023-04-09T05:05:54;19.10;;;11.23;;
20379;SDS011;10349;48.666;8.948;2023-04-09T05:08:21;10.90;;;9.30;;
20379;SDS011;10349;48.666;8.948;2023-04-09T05:10:50;13.17;;;9.53;;
20379;SDS011;10349;48.666;8.948;2023-04-09T05:13:18;15.20;;;10.60;;
20379;SDS011;10349;48.666;8.948;2023-04-09T05:15:43;18.00;;;10.53;;
20379;SDS011;10349;48.666;8.948;2023-04-09T05:18:09;20.03;;;11.37;;
20379;SDS011;10349;48.666;8.948;2023-04-09T05:20:35;12.60;;;9.40;;
20379;SDS011;10349;48.666;8.948;2023-04-09T05:23:05;17.80;;;11.27;;
20379;SDS011;10349;48.666;8.948;2023-04-09T05:25:38;15.70;;;9.93;;
20379;SDS011;10349;48.666;8.948;2023-04-09T05:28:05;13.50;;;9.13;;
20379;SDS011;10349;48.666;8.948;2023-04-09T05:30:33;14.57;;;9.00;;
20379;SDS011;10349;48.666;8.948;2023-04-09T05:33:02;11.50;;;8.30;;
20379;SDS011;10349;48.666;8.948;2023-04-09T05:35:31;13.90;;;9.30;;
20379;SDS011;10349;48.666;8.948;2023-04-09T05:38:02;11.60;;;8.27;;
20379;SDS011;10349;48.666;8.948;2023-04-09T05:40:28;9.63;;;8.60;;
20379;SDS011;10349;48.666;8.948;2023-04-09T05:42:54;15.70;;;9.57;;
20379;SDS011;10349;48.666;8.948;2023-04-09T05:45:39;14.23;;;10.20;;
20379;SDS011;10349;48.666;8.948;2023-04-09T05:48:05;11.23;;;8.67;;
20379;SDS011;10349;48.666;8.948;2023-04-09T05:50:31;17.90;;;12.30;;
20379;SDS011;10349;48.666;8.948;2023-04-09T05:52:57;9.77;;;8.47;;
20379;SDS011;10349;48.666;8.948;2023-04-09T05:55:30;15.97;;;11.40;;
20379;SDS011;10349;48.666;8.948;2023-04-09T05:57:58;11.87;;;9.33;;
20379;SDS011;10349;48.666;8.948;2023-04-09T06:00:24;11.83;;;9.53;;
20379;SDS011;10349;48.666;8.948;2023-04-09T06:02:50;14.90;;;9.90;;
20379;SDS011;10349;48.666;8.948;2023-04-09T06:05:16;15.10;;;11.17;;
20379;SDS011;10349;48.666;8.948;2023-04-09T06:07:42;15.53;;;11.30;;
20379;SDS011;10349;48.666;8.948;2023-04-09T06:10:07;19.83;;;12.27;;
20379;SDS011;10349;48.666;8.948;2023-04-09T06:12:34;18.77;;;11.67;;
20379;SDS011;10349;48.666;8.948;2023-04-09T06:15:02;20.63;;;12.20;;
20379;SDS011;10349;48.666;8.948;2023-04-09T06:17:29;19.33;;;12.67;;
20379;SDS011;10349;48.666;8.948;2023-04-09T06:19:54;21.17;;;12.37;;
20379;SDS011;10349;48.666;8.948;2023-04-09T06:22:20;16.77;;;11.50;;
20379;SDS011;10349;48.666;8.948;2023-04-09T06:24:46;21.07;;;12.77;;
20379;SDS011;10349;48.666;8.948;2023-04-09T06:27:11;23.27;;;14.50;;
20379;SDS011;10349;48.666;8.948;2023-04-09T06:29:37;23.53;;;14.33;;
20379;SDS011;10349;48.666;8.948;2023-04-09T06:32:03;24.13;;;13.70;;
20379;SDS011;10349;48.666;8.948;2023-04-09T06:34:29;22.47;;;14.60;;
20379;SDS011;10349;48.666;8.948;2023-04-09T06:36:55;26.77;;;14.70;;
20379;SDS011;10349;48.666;8.948;2023-04-09T06:39:21;29.40;;;15.20;;
20379;SDS011;10349;48.666;8.948;2023-04-09T06:41:48;20.70;;;13.83;;
20379;SDS011;10349;48.666;8.948;2023-04-09T06:44:23;20.87;;;12.43;;
20379;SDS011;10349;48.666;8.948;2023-04-09T06:46:59;23.63;;;13.10;;
20379;SDS011;10349;48.666;8.948;2023-04-09T06:49:36;24.03;;;15.47;;
20379;SDS011;10349;48.666;8.948;2023-04-09T06:52:03;21.60;;;13.60;;
20379;SDS011;10349;48.666;8.948;2023-04-09T06:54:29;16.50;;;12.37;;
20379;SDS011;10349;48.666;8.948;2023-04-09T06:56:55;20.73;;;13.47;;
20379;SDS011;10349;48.666;8.948;2023-04-09T06:59:21;22.00;;;14.20;;
20379;SDS011;10349;48.666;8.948;2023-04-09T07:01:46;24.67;;;13.87;;
20379;SDS011;10349;48.666;8.948;2023-04-09T07:04:12;30.20;;;14.50;;
20379;SDS011;10349;48.666;8.948;2023-04-09T07:06:38;21.40;;;13.43;;
20379;SDS011;10349;48.666;8.948;2023-04-09T07:09:04;25.70;;;14.50;;
20379;SDS011;10349;48.666;8.948;2023-04-09T07:11:30;21.37;;;12.87;;
20379;SDS011;10349;48.666;8.948;2023-04-09T07:13:57;21.93;;;14.13;;
20379;SDS011;10349;48.666;8.948;2023-04-09T07:16:23;20.63;;;12.70;;
20379;SDS011;10349;48.666;8.948;2023-04-09T07:18:49;22.10;;;12.67;;
20379;SDS011;10349;48.666;8.948;2023-04-09T07:21:15;20.80;;;12.47;;
20379;SDS011;10349;48.666;8.948;2023-04-09T07:23:41;20.77;;;13.60;;
20379;SDS011;10349;48.666;8.948;2023-04-09T07:26:06;16.80;;;11.67;;
20379;SDS011;10349;48.666;8.948;2023-04-09T07:28:32;21.50;;;13.87;;
20379;SDS011;10349;48.666;8.948;2023-04-09T07:30:59;25.23;;;13.40;;
20379;SDS011;10349;48.666;8.948;2023-04-09T07:33:28;21.30;;;13.27;;
20379;SDS011;10349;48.666;8.948;2023-04-09T07:35:54;19.47;;;13.17;;
20379;SDS011;10349;48.666;8.948;2023-04-09T07:38:20;18.27;;;12.37;;
20379;SDS011;10349;48.666;8.948;2023-04-09T07:40:45;21.83;;;12.53;;
20379;SDS011;10349;48.666;8.948;2023-04-09T07:43:11;21.67;;;13.30;;
20379;SDS011;10349;48.666;8.948;2023-04-09T07:45:37;19.30;;;13.00;;
20379;SDS011;10349;48.666;8.948;2023-04-09T07:48:03;20.37;;;13.53;;
20379;SDS011;10349;48.666;8.948;2023-04-09T07:50:28;18.73;;;12.97;;
20379;SDS011;10349;48.666;8.948;2023-04-09T07:52:54;15.83;;;10.13;;
20379;SDS011;10349;48.666;8.948;2023-04-09T07:55:22;14.57;;;9.83;;
20379;SDS011;10349;48.666;8.948;2023-04-09T07:57:47;11.73;;;9.70;;
20379;SDS011;10349;48.666;8.948;2023-04-09T08:00:14;18.50;;;10.07;;
20379;SDS011;10349;48.666;8.948;2023-04-09T08:02:42;12.10;;;8.77;;
20379;SDS011;10349;48.666;8.948;2023-04-09T08:05:08;14.83;;;8.20;;
20379;SDS011;10349;48.666;8.948;2023-04-09T08:07:34;13.60;;;10.03;;
20379;SDS011;10349;48.666;8.948;2023-04-09T08:10:00;10.20;;;7.00;;
20379;SDS011;10349;48.666;8.948;2023-04-09T08:12:26;11.80;;;8.07;;
20379;SDS011;10349;48.666;8.948;2023-04-09T08:14:52;9.90;;;6.73;;
20379;SDS011;10349;48.666;8.948;2023-04-09T08:17:17;5.90;;;5.30;;
20379;SDS011;10349;48.666;8.948;2023-04-09T08:19:43;7.33;;;5.90;;
20379;SDS011;10349;48.666;8.948;2023-04-09T08:22:09;8.87;;;6.70;;
20379;SDS011;10349;48.666;8.948;2023-04-09T08:24:35;8.33;;;6.90;;
20379;SDS011;10349;48.666;8.948;2023-04-09T08:27:01;6.87;;;4.90;;
20379;SDS011;10349;48.666;8.948;2023-04-09T08:29:26;4.73;;;4.17;;
20379;SDS011;10349;48.666;8.948;2023-04-09T08:31:53;5.37;;;4.63;;
20379;SDS011;10349;48.666;8.948;2023-04-09T08:34:19;5.63;;;5.13;;
20379;SDS011;10349;48.666;8.948;2023-04-09T08:36:46;5.60;;;5.10;;
20379;SDS011;10349;48.666;8.948;2023-04-09T08:39:14;4.63;;;4.23;;
20379;SDS011;10349;48.666;8.948;2023-04-09T08:41:43;11.13;;;5.93;;
20379;SDS011;10349;48.666;8.948;2023-04-09T08:44:10;4.47;;;4.17;;
20379;SDS011;10349;48.666;8.948;2023-04-09T08:46:36;4.83;;;4.33;;
20379;SDS011;10349;48.666;8.948;2023-04-09T08:49:01;15.10;;;5.10;;
20379;SDS011;10349;48.666;8.948;2023-04-09T08:51:27;6.20;;;4.83;;
20379;SDS011;10349;48.666;8.948;2023-04-09T08:56:19;4.80;;;3.73;;
20379;SDS011;10349;48.666;8.948;2023-04-09T08:58:46;4.67;;;4.17;;
20379;SDS011;10349;48.666;8.948;2023-04-09T09:03:58;5.73;;;4.77;;
20379;SDS011;10349;48.666;8.948;2023-04-09T09:06:35;5.50;;;4.83;;
20379;SDS011;10349;48.666;8.948;2023-04-09T09:09:03;4.20;;;3.80;;
20379;SDS011;10349;48.666;8.948;2023-04-09T09:11:32;4.00;;;3.70;;
20379;SDS011;10349;48.666;8.948;2023-04-09T09:14:00;4.17;;;3.73;;
20379;SDS011;10349;48.666;8.948;2023-04-09T09:16:40;4.83;;;4.33;;
20379;SDS011;10349;48.666;8.948;2023-04-09T09:19:08;4.60;;;4.20;;
20379;SDS011;10349;48.666;8.948;2023-04-09T09:21:34;5.53;;;4.77;;
20379;SDS011;10349;48.666;8.948;2023-04-09T09:24:01;4.40;;;4.00;;
20379;SDS011;10349;48.666;8.948;2023-04-09T09:26:40;5.30;;;3.80;;
20379;SDS011;10349;48.666;8.948;2023-04-09T09:29:07;4.93;;;4.10;;
20379;SDS011;10349;48.666;8.948;2023-04-09T09:31:33;3.57;;;3.27;;
20379;SDS011;10349;48.666;8.948;2023-04-09T09:34:11;3.93;;;3.63;;
20379;SDS011;10349;48.666;8.948;2023-04-09T09:36:37;4.17;;;3.83;;
20379;SDS011;10349;48.666;8.948;2023-04-09T09:39:03;6.23;;;5.17;;
20379;SDS011;10349;48.666;8.948;2023-04-09T09:41:34;5.80;;;4.10;;
20379;SDS011;10349;48.666;8.948;2023-04-09T09:44:00;4.67;;;4.27;;
20379;SDS011;10349;48.666;8.948;2023-04-09T09:46:38;5.20;;;4.70;;
20379;SDS011;10349;48.666;8.948;2023-04-09T09:49:07;5.07;;;4.60;;
20379;SDS011;10349;48.666;8.948;2023-04-09T09:51:38;6.20;;;4.33;;
20379;SDS011;10349;48.666;8.948;2023-04-09T09:54:04;5.67;;;5.03;;
20379;SDS011;10349;48.666;8.948;2023-04-09T09:56:37;6.57;;;4.83;;
20379;SDS011;10349;48.666;8.948;2023-04-09T09:59:12;7.00;;;6.40;;
20379;SDS011;10349;48.666;8.948;2023-04-09T10:01:39;9.03;;;7.07;;
20379;SDS011;10349;48.666;8.948;2023-04-09T10:04:06;6.07;;;5.30;;
20379;SDS011;10349;48.666;8.948;2023-04-09T10:06:38;5.30;;;4.80;;
20379;SDS011;10349;48.666;8.948;2023-04-09T10:09:06;3.57;;;3.20;;
20379;SDS011;10349;48.666;8.948;2023-04-09T10:11:34;5.43;;;4.33;;
20379;SDS011;10349;48.666;8.948;2023-04-09T10:14:02;4.50;;;3.90;;
20379;SDS011;10349;48.666;8.948;2023-04-09T10:16:34;3.40;;;3.13;;
20379;SDS011;10349;48.666;8.948;2023-04-09T10:19:00;5.10;;;4.67;;
20379;SDS011;10349;48.666;8.948;2023-04-09T10:21:30;4.40;;;3.60;;
20379;SDS011;10349;48.666;8.948;2023-04-09T10:24:00;4.83;;;4.40;;
20379;SDS011;10349;48.666;8.948;2023-04-09T10:26:34;5.17;;;4.60;;
20379;SDS011;10349;48.666;8.948;2023-04-09T10:29:12;4.77;;;4.33;;
20379;SDS011;10349;48.666;8.948;2023-04-09T10:34:36;6.97;;;4.93;;
20379;SDS011;10349;48.666;8.948;2023-04-09T10:37:07;6.10;;;4.60;;
20379;SDS011;10349;48.666;8.948;2023-04-09T10:39:42;14.70;;;4.93;;
20379;SDS011;10349;48.666;8.948;2023-04-09T10:42:13;4.97;;;4.67;;
20379;SDS011;10349;48.666;8.948;2023-04-09T10:44:43;7.30;;;5.33;;
20379;SDS011;10349;48.666;8.948;2023-04-09T10:47:10;6.53;;;5.30;;
20379;SDS011;10349;48.666;8.948;2023-04-09T10:49:37;5.13;;;4.60;;
20379;SDS011;10349;48.666;8.948;2023-04-09T10:59:39;5.07;;;4.43;;
20379;SDS011;10349;48.666;8.948;2023-04-09T11:02:10;4.43;;;4.13;;
20379;SDS011;10349;48.666;8.948;2023-04-09T11:07:46;4.70;;;4.30;;
20379;SDS011;10349;48.666;8.948;2023-04-09T11:10:33;4.20;;;3.90;;
20379;SDS011;10349;48.666;8.948;2023-04-09T11:13:00;3.73;;;3.43;;
20379;SDS011;10349;48.666;8.948;2023-04-09T11:15:27;3.67;;;3.37;;
20379;SDS011;10349;48.666;8.948;2023-04-09T11:17:53;5.53;;;5.03;;
20379;SDS011;10349;48.666;8.948;2023-04-09T11:20:21;4.57;;;4.17;;
20379;SDS011;10349;48.666;8.948;2023-04-09T11:22:49;5.37;;;4.33;;
20379;SDS011;10349;48.666;8.948;2023-04-09T11:25:29;5.33;;;4.77;;
20379;SDS011;10349;48.666;8.948;2023-04-09T11:27:57;5.27;;;4.60;;
20379;SDS011;10349;48.666;8.948;2023-04-09T11:30:24;5.00;;;4.50;;
20379;SDS011;10349;48.666;8.948;2023-04-09T11:32:50;4.53;;;4.13;;
20379;SDS011;10349;48.666;8.948;2023-04-09T11:35:20;6.37;;;5.87;;
20379;SDS011;10349;48.666;8.948;2023-04-09T11:37:47;7.73;;;7.00;;
20379;SDS011;10349;48.666;8.948;2023-04-09T11:40:20;6.40;;;5.57;;
20379;SDS011;10349;48.666;8.948;2023-04-09T11:42:49;4.60;;;3.80;;
20379;SDS011;10349;48.666;8.948;2023-04-09T11:45:19;5.23;;;4.83;;
20379;SDS011;10349;48.666;8.948;2023-04-09T11:47:53;5.23;;;4.73;;
20379;SDS011;10349;48.666;8.948;2023-04-09T11:50:19;5.70;;;4.80;;
20379;SDS011;10349;48.666;8.948;2023-04-09T11:52:50;7.80;;;5.73;;
20379;SDS011;10349;48.666;8.948;2023-04-09T11:55:35;4.87;;;4.37;;
20379;SDS011;10349;48.666;8.948;2023-04-09T11:58:02;61.57;;;22.30;;
20379;SDS011;10349;48.666;8.948;2023-04-09T12:00:31;7.33;;;6.70;;
20379;SDS011;10349;48.666;8.948;2023-04-09T12:02:59;18.40;;;8.90;;
20379;SDS011;10349;48.666;8.948;2023-04-09T12:05:28;15.53;;;9.83;;
20379;SDS011;10349;48.666;8.948;2023-04-09T12:08:00;11.93;;;8.73;;
20379;SDS011;10349;48.666;8.948;2023-04-09T12:10:29;18.40;;;9.53;;
20379;SDS011;10349;48.666;8.948;2023-04-09T12:13:00;6.03;;;5.57;;
20379;SDS011;10349;48.666;8.948;2023-04-09T12:15:37;6.13;;;4.87;;
20379;SDS011;10349;48.666;8.948;2023-04-09T12:18:09;7.97;;;7.10;;
20379;SDS011;10349;48.666;8.948;2023-04-09T12:20:36;7.57;;;5.60;;
20379;SDS011;10349;48.666;8.948;2023-04-09T12:23:03;5.23;;;4.83;;
20379;SDS011;10349;48.666;8.948;2023-04-09T12:25:32;6.70;;;5.47;;
20379;SDS011;10349;48.666;8.948;2023-04-09T12:27:59;4.97;;;4.47;;
20379;SDS011;10349;48.666;8.948;2023-04-09T12:30:25;7.20;;;4.37;;
20379;SDS011;10349;48.666;8.948;2023-04-09T12:32:51;4.83;;;4.43;;
20379;SDS011;10349;48.666;8.948;2023-04-09T12:35:19;7.57;;;5.83;;
20379;SDS011;10349;48.666;8.948;2023-04-09T12:37:45;7.20;;;5.27;;
20379;SDS011;10349;48.666;8.948;2023-04-09T12:40:11;6.13;;;5.10;;
20379;SDS011;10349;48.666;8.948;2023-04-09T12:42:43;4.30;;;4.00;;
20379;SDS011;10349;48.666;8.948;2023-04-09T12:45:14;4.80;;;4.40;;
20379;SDS011;10349;48.666;8.948;2023-04-09T12:47:40;6.30;;;4.67;;
20379;SDS011;10349;48.666;8.948;2023-04-09T12:50:07;5.30;;;4.80;;
20379;SDS011;10349;48.666;8.948;2023-04-09T12:52:34;5.90;;;4.83;;
20379;SDS011;10349;48.666;8.948;2023-04-09T12:55:00;6.13;;;5.53;;
20379;SDS011;10349;48.666;8.948;2023-04-09T12:57:27;5.13;;;4.80;;
20379;SDS011;10349;48.666;8.948;2023-04-09T12:59:54;5.37;;;4.87;;
20379;SDS011;10349;48.666;8.948;2023-04-09T13:02:20;5.97;;;5.40;;
20379;SDS011;10349;48.666;8.948;2023-04-09T13:04:46;4.77;;;4.37;;
20379;SDS011;10349;48.666;8.948;2023-04-09T13:07:12;5.17;;;4.77;;
20379;SDS011;10349;48.666;8.948;2023-04-09T13:09:44;4.33;;;4.00;;
20379;SDS011;10349;48.666;8.948;2023-04-09T13:12:10;4.23;;;3.90;;
20379;SDS011;10349;48.666;8.948;2023-04-09T13:14:37;4.73;;;4.33;;
20379;SDS011;10349;48.666;8.948;2023-04-09T13:17:04;7.03;;;5.30;;
20379;SDS011;10349;48.666;8.948;2023-04-09T13:19:30;9.10;;;8.17;;
20379;SDS011;10349;48.666;8.948;2023-04-09T13:21:56;6.03;;;5.43;;
20379;SDS011;10349;48.666;8.948;2023-04-09T13:24:22;5.80;;;4.83;;
20379;SDS011;10349;48.666;8.948;2023-04-09T13:26:48;5.47;;;4.80;;
20379;SDS011;10349;48.666;8.948;2023-04-09T13:29:14;5.03;;;4.50;;
20379;SDS011;10349;48.666;8.948;2023-04-09T13:31:40;5.33;;;4.93;;
20379;SDS011;10349;48.666;8.948;2023-04-09T13:34:15;4.77;;;4.27;;
20379;SDS011;10349;48.666;8.948;2023-04-09T13:36:41;4.63;;;4.20;;
20379;SDS011;10349;48.666;8.948;2023-04-09T13:39:07;4.80;;;4.03;;
20379;SDS011;10349;48.666;8.948;2023-04-09T13:41:32;4.50;;;4.10;;
20379;SDS011;10349;48.666;8.948;2023-04-09T13:43:58;4.63;;;4.20;;
20379;SDS011;10349;48.666;8.948;2023-04-09T13:46:25;4.57;;;4.07;;
20379;SDS011;10349;48.666;8.948;2023-04-09T13:48:51;6.00;;;4.77;;
20379;SDS011;10349;48.666;8.948;2023-04-09T13:51:21;4.30;;;4.00;;
20379;SDS011;10349;48.666;8.948;2023-04-09T13:53:48;4.50;;;4.10;;
20379;SDS011;10349;48.666;8.948;2023-04-09T13:56:16;4.30;;;4.00;;
20379;SDS011;10349;48.666;8.948;2023-04-09T13:58:45;4.67;;;4.20;;
20379;SDS011;10349;48.666;8.948;2023-04-09T14:01:11;3.53;;;3.23;;
20379;SDS011;10349;48.666;8.948;2023-04-09T14:03:37;4.50;;;4.20;;
20379;SDS011;10349;48.666;8.948;2023-04-09T14:06:04;3.83;;;3.53;;
20379;SDS011;10349;48.666;8.948;2023-04-09T14:08:34;4.33;;;3.77;;
20379;SDS011;10349;48.666;8.948;2023-04-09T14:11:00;5.17;;;4.37;;
20379;SDS011;10349;48.666;8.948;2023-04-09T14:13:26;6.10;;;5.23;;
20379;SDS011;10349;48.666;8.948;2023-04-09T14:15:53;4.43;;;4.10;;
20379;SDS011;10349;48.666;8.948;2023-04-09T14:18:18;3.57;;;3.27;;
20379;SDS011;10349;48.666;8.948;2023-04-09T14:20:44;4.70;;;3.73;;
20379;SDS011;10349;48.666;8.948;2023-04-09T14:23:10;4.17;;;3.87;;
20379;SDS011;10349;48.666;8.948;2023-04-09T14:25:36;4.70;;;4.27;;
20379;SDS011;10349;48.666;8.948;2023-04-09T14:28:02;4.73;;;4.33;;
20379;SDS011;10349;48.666;8.948;2023-04-09T14:30:28;5.43;;;4.50;;
20379;SDS011;10349;48.666;8.948;2023-04-09T14:32:57;5.03;;;4.33;;
20379;SDS011;10349;48.666;8.948;2023-04-09T14:35:22;5.00;;;4.50;;
20379;SDS011;10349;48.666;8.948;2023-04-09T14:37:48;5.63;;;4.03;;
20379;SDS011;10349;48.666;8.948;2023-04-09T14:40:14;4.53;;;4.13;;
20379;SDS011;10349;48.666;8.948;2023-04-09T14:42:40;4.50;;;4.20;;
20379;SDS011;10349;48.666;8.948;2023-04-09T14:45:06;4.40;;;4.10;;
20379;SDS011;10349;48.666;8.948;2023-04-09T14:47:32;9.07;;;4.90;;
20379;SDS011;10349;48.666;8.948;2023-04-09T14:49:57;4.83;;;4.50;;
20379;SDS011;10349;48.666;8.948;2023-04-09T14:52:26;7.40;;;4.70;;
20379;SDS011;10349;48.666;8.948;2023-04-09T14:54:54;5.40;;;4.90;;
20379;SDS011;10349;48.666;8.948;2023-04-09T14:57:21;5.20;;;4.70;;
20379;SDS011;10349;48.666;8.948;2023-04-09T14:59:49;4.70;;;4.20;;
20379;SDS011;10349;48.666;8.948;2023-04-09T15:02:15;4.80;;;4.20;;
20379;SDS011;10349;48.666;8.948;2023-04-09T15:04:41;4.57;;;4.27;;
20379;SDS011;10349;48.666;8.948;2023-04-09T15:07:07;5.00;;;4.60;;
20379;SDS011;10349;48.666;8.948;2023-04-09T15:09:33;4.53;;;3.53;;